createdAt,value
2023-04-05T00:01:41.506Z,101974.44
2023-04-05T00:04:50.643Z,101975.34
2023-04-05T00:07:54.972Z,101983.03
2023-04-05T00:10:58.061Z,101985.63
2023-04-05T00:14:03.641Z,101980.53
2023-04-05T00:17:07.402Z,101978.84
2023-04-05T00:20:13.171Z,101973.75
2023-04-05T00:23:17.532Z,101976.34
2023-04-05T00:26:21.754Z,101982.34
2023-04-05T00:29:32.984Z,101981.50
2023-04-05T00:32:36.692Z,101970.41
2023-04-05T00:35:40.165Z,101973.84
2023-04-05T00:38:44.880Z,101971.31
2023-04-05T00:41:48.773Z,101976.47
2023-04-05T00:44:53.736Z,101978.16
2023-04-05T00:47:57.690Z,101973.03
2023-04-05T00:51:01.551Z,101974.75
2023-04-05T00:54:05.864Z,101971.38
2023-04-05T00:57:09.259Z,101971.38
2023-04-05T01:00:15.326Z,101957.72
2023-04-05T01:03:20.167Z,101957.75
2023-04-05T01:06:47.984Z,101961.19
2023-04-05T01:09:58.662Z,101958.63
2023-04-05T01:13:02.069Z,101963.75
2023-04-05T01:16:08.278Z,101956.06
2023-04-05T01:19:13.383Z,101956.09
2023-04-05T01:22:57.325Z,101957.78
2023-04-05T01:26:31.306Z,101964.63
2023-04-05T01:29:52.133Z,101961.25
2023-04-05T01:33:10.835Z,101956.13
2023-04-05T01:36:22.584Z,101958.72
2023-04-05T01:39:30.049Z,101954.47
2023-04-05T01:42:33.122Z,101951.94
2023-04-05T01:45:37.481Z,101948.53
2023-04-05T01:48:40.501Z,101949.34
2023-04-05T01:51:43.480Z,101949.34
2023-04-05T01:54:46.945Z,101950.22
2023-04-05T01:57:50.075Z,101947.66
2023-04-05T02:00:56.568Z,101944.19
2023-04-05T02:04:00.119Z,101935.69
2023-04-05T02:07:03.882Z,101937.34
2023-04-05T02:10:08.998Z,101936.47
2023-04-05T02:13:13.646Z,101932.19
2023-04-05T02:16:18.489Z,101931.28
2023-04-05T02:19:23.132Z,101930.41
2023-04-05T02:22:27.263Z,101926.06
2023-04-05T02:25:30.874Z,101925.16
2023-04-05T02:28:34.437Z,101922.53
2023-04-05T02:31:38.757Z,101915.63
2023-04-05T02:34:46.320Z,101918.94
2023-04-05T02:37:49.401Z,101913.75
2023-04-05T02:40:52.487Z,101908.63
2023-04-05T02:43:55.612Z,101912.75
2023-04-05T02:47:00.723Z,101916.19
2023-04-05T02:50:09.004Z,101916.19
2023-04-05T02:53:18.480Z,101908.50
2023-04-05T02:56:29.136Z,101896.53
2023-04-05T02:59:33.183Z,101897.31
2023-04-05T03:02:39.790Z,101898.03
2023-04-05T03:05:43.356Z,101885.94
2023-04-05T03:08:49.340Z,101888.38
2023-04-05T03:11:58.904Z,101883.19
2023-04-05T03:15:02.093Z,101883.16
2023-04-05T03:18:14.320Z,101885.63
2023-04-05T03:21:19.544Z,101894.13
2023-04-05T03:24:31.858Z,101886.44
2023-04-05T03:27:38.426Z,101883.00
2023-04-05T03:30:46.703Z,101881.25
2023-04-05T03:33:57.275Z,101887.22
2023-04-05T03:37:03.748Z,101879.44
2023-04-05T03:40:15.820Z,101877.66
2023-04-05T03:43:19.268Z,101870.75
2023-04-05T03:46:23.525Z,101863.91
2023-04-05T03:49:27.952Z,101873.22
2023-04-05T03:52:33.887Z,101864.63
2023-04-05T03:55:36.968Z,101873.16
2023-04-05T03:58:42.882Z,101869.75
2023-04-05T04:01:47.102Z,101862.06
2023-04-05T04:04:53.589Z,101861.97
2023-04-05T04:07:56.715Z,101867.06
2023-04-05T04:11:00.174Z,101866.22
2023-04-05T04:14:06.503Z,101861.03
2023-04-05T04:17:28.204Z,101861.84
2023-04-05T04:20:52.257Z,101858.31
2023-04-05T04:24:09.997Z,101867.72
2023-04-05T04:27:25.906Z,101856.53
2023-04-05T04:30:51.764Z,101857.34
2023-04-05T04:34:25.454Z,101861.53
2023-04-05T04:37:48.008Z,101861.53
2023-04-05T04:41:22.602Z,101861.47
2023-04-05T04:44:31.171Z,101868.31
2023-04-05T04:47:34.238Z,101865.72
2023-04-05T04:50:51.785Z,101864.81
2023-04-05T04:53:57.854Z,101864.72
2023-04-05T04:57:01.483Z,101866.47
2023-04-05T05:00:12.175Z,101869.03
2023-04-05T05:03:16.565Z,101858.69
2023-04-05T05:06:22.049Z,101862.16
2023-04-05T05:09:27.245Z,101859.56
2023-04-05T05:12:33.958Z,101868.94
2023-04-05T05:15:36.942Z,101869.81
2023-04-05T05:18:41.593Z,101859.47
2023-04-05T05:21:44.609Z,101856.88
2023-04-05T05:24:49.045Z,101862.88
2023-04-05T05:27:52.756Z,101856.81
2023-04-05T05:30:58.698Z,101855.09
2023-04-05T05:34:01.806Z,101859.28
2023-04-05T05:37:06.718Z,101856.69
2023-04-05T05:40:13.159Z,101856.66
2023-04-05T05:43:16.292Z,101853.16
2023-04-05T05:46:21.144Z,101854.84
2023-04-05T05:49:24.332Z,101849.66
2023-04-05T05:52:27.302Z,101844.44
2023-04-05T05:55:31.695Z,101838.38
2023-04-05T05:58:34.803Z,101834.00
2023-04-05T06:01:38.228Z,101830.53
2023-04-05T06:04:41.822Z,101829.56
2023-04-05T06:07:45.196Z,101835.47
2023-04-05T06:10:51.281Z,101837.03
2023-04-05T06:13:55.271Z,101856.75
2023-04-05T06:16:58.505Z,101855.91
2023-04-05T06:20:01.502Z,101851.53
2023-04-05T06:23:04.507Z,101849.09
2023-04-05T06:26:08.794Z,101847.19
2023-04-05T06:29:12.395Z,101845.47
2023-04-05T06:32:15.480Z,101841.13
2023-04-05T06:35:18.693Z,101842.81
2023-04-05T06:38:21.731Z,101841.13
2023-04-05T06:41:27.531Z,101853.25
2023-04-05T06:44:30.926Z,101847.88
2023-04-05T06:47:35.510Z,101841.53
2023-04-05T06:50:39.698Z,101855.25
2023-04-05T06:53:43.154Z,101854.25
2023-04-05T06:56:47.514Z,101854.00
2023-04-05T06:59:50.922Z,101850.50
2023-04-05T07:02:55.314Z,101845.13
2023-04-05T07:06:00.797Z,101839.13
2023-04-05T07:09:04.112Z,101826.84
2023-04-05T07:12:09.627Z,101833.50
2023-04-05T07:15:13.193Z,101831.81
2023-04-05T07:18:16.582Z,101837.59
2023-04-05T07:21:19.527Z,101826.75
2023-04-05T07:24:22.613Z,101838.63
2023-04-05T07:27:27.459Z,101828.13
2023-04-05T07:30:32.006Z,101837.72
2023-04-05T07:33:35.036Z,101828.59
2023-04-05T07:36:38.185Z,101825.56
2023-04-05T07:39:41.324Z,101832.63
2023-04-05T07:42:45.789Z,101840.13
2023-04-05T07:45:48.787Z,101841.09
2023-04-05T07:48:51.869Z,101846.66
2023-04-05T07:51:58.451Z,101838.28
2023-04-05T07:55:01.399Z,101842.09
2023-04-05T07:58:05.768Z,101845.38
2023-04-05T08:01:11.528Z,101841.78
2023-04-05T08:04:14.803Z,101835.88
2023-04-05T08:07:18.202Z,101836.81
2023-04-05T08:10:21.652Z,101834.78
2023-04-05T08:13:27.641Z,101836.16
2023-04-05T08:16:31.557Z,101839.81
2023-04-05T08:19:34.534Z,101830.53
2023-04-05T08:22:37.809Z,101836.06
2023-04-05T08:25:42.552Z,101833.56
2023-04-05T08:28:47.161Z,101827.91
2023-04-05T08:31:50.455Z,101830.16
2023-04-05T08:34:53.475Z,101828.50
2023-04-05T08:37:56.602Z,101825.50
2023-04-05T08:41:16.160Z,101827.25
2023-04-05T08:44:25.334Z,101825.50
2023-04-05T08:47:29.403Z,101823.16
2023-04-05T08:50:32.705Z,101817.94
2023-04-05T08:53:36.025Z,101820.06
2023-04-05T08:56:40.393Z,101825.34
2023-04-05T08:59:46.551Z,101814.38
2023-04-05T09:02:56.166Z,101816.03
2023-04-05T09:06:00.974Z,101816.06
2023-04-05T09:09:08.839Z,101816.78
2023-04-05T09:12:12.678Z,101812.91
2023-04-05T09:15:18.357Z,101810.97
2023-04-05T09:18:26.751Z,101803.84
2023-04-05T09:21:30.553Z,101807.97
2023-04-05T09:24:36.735Z,101809.03
2023-04-05T09:27:57.264Z,101811.88
2023-04-05T09:31:01.615Z,101811.69
2023-04-05T09:34:06.468Z,101809.50
2023-04-05T09:37:17.454Z,101810.69
2023-04-05T09:40:21.591Z,101802.69
2023-04-05T09:43:38.068Z,101804.56
2023-04-05T09:46:43.733Z,101803.91
2023-04-05T09:49:46.901Z,101808.69
2023-04-05T09:52:51.608Z,101803.19
2023-04-05T09:55:54.644Z,101807.22
2023-04-05T09:59:02.307Z,101799.34
2023-04-05T10:02:07.128Z,101793.72
2023-04-05T10:05:13.915Z,101794.19
2023-04-05T10:08:17.211Z,101787.34
2023-04-05T10:11:21.661Z,101783.53
2023-04-05T10:14:24.887Z,101786.16
2023-04-05T10:17:36.029Z,101781.97
2023-04-05T10:20:41.921Z,101782.94
2023-04-05T10:23:48.537Z,101784.44
2023-04-05T10:27:03.484Z,101794.91
2023-04-05T10:30:09.882Z,101798.25
2023-04-05T10:33:22.041Z,101796.50
2023-04-05T10:36:39.965Z,101795.16
2023-04-05T10:39:47.182Z,101795.50
2023-04-05T10:42:50.581Z,101780.72
2023-04-05T10:45:55.711Z,101778.00
2023-04-05T10:49:17.539Z,101782.34
2023-04-05T10:52:22.612Z,101779.94
2023-04-05T10:55:26.122Z,101777.66
2023-04-05T10:58:31.125Z,101772.28
2023-04-05T11:01:34.623Z,101781.56
2023-04-05T11:04:42.331Z,101783.81
2023-04-05T11:07:49.554Z,101787.16
2023-04-05T11:10:54.360Z,101778.03
2023-04-05T11:13:58.858Z,101774.56
2023-04-05T11:17:02.225Z,101774.63
2023-04-05T11:20:12.733Z,101770.03
2023-04-05T11:23:18.812Z,101770.28
2023-04-05T11:26:22.137Z,101766.38
2023-04-05T11:29:47.882Z,101767.78
2023-04-05T11:32:51.583Z,101768.03
2023-04-05T11:36:03.776Z,101773.38
2023-04-05T11:39:30.040Z,101758.66
2023-04-05T11:42:33.243Z,101765.22
2023-04-05T11:45:39.250Z,101762.81
2023-04-05T11:48:43.016Z,101764.56
2023-04-05T11:51:48.958Z,101765.13
2023-04-05T11:54:53.306Z,101768.44
2023-04-05T11:57:56.985Z,101765.97
2023-04-05T12:01:02.436Z,101760.41
2023-04-05T12:04:08.700Z,101765.97
2023-04-05T12:07:18.486Z,101771.41
2023-04-05T12:10:22.378Z,101770.34
2023-04-05T12:13:30.232Z,101763.53
2023-04-05T12:16:33.243Z,101762.00
2023-04-05T12:19:37.360Z,101761.06
2023-04-05T12:22:44.843Z,101762.31
2023-04-05T12:25:48.353Z,101757.91
2023-04-05T12:28:52.780Z,101753.53
2023-04-05T12:31:57.479Z,101756.09
2023-04-05T12:35:00.518Z,101752.25
2023-04-05T12:38:06.517Z,101749.56
2023-04-05T12:41:09.529Z,101744.19
2023-04-05T12:44:16.731Z,101743.28
2023-04-05T12:47:19.725Z,101735.75
2023-04-05T12:50:29.856Z,101733.88
2023-04-05T12:53:34.548Z,101740.44
2023-04-05T12:56:39.949Z,101727.66
2023-04-05T12:59:42.941Z,101731.28
2023-04-05T13:02:51.165Z,101734.19
2023-04-05T13:05:54.488Z,101736.00
2023-04-05T13:08:58.807Z,101720.84
2023-04-05T13:12:02.396Z,101714.13
2023-04-05T13:15:07.376Z,101726.38
2023-04-05T13:18:10.799Z,101723.78
2023-04-05T13:21:14.101Z,101711.88
2023-04-05T13:24:18.366Z,101715.44
2023-04-05T13:27:21.697Z,101711.63
2023-04-05T13:30:24.968Z,101705.13
2023-04-05T13:33:27.906Z,101701.47
2023-04-05T13:36:31.549Z,101699.44
2023-04-05T13:39:35.928Z,101691.44
2023-04-05T13:42:39.590Z,101688.41
2023-04-05T13:45:42.922Z,101691.78
2023-04-05T13:48:46.153Z,101689.88
2023-04-05T13:51:49.815Z,101690.38
2023-04-05T13:55:03.318Z,101680.38
2023-04-05T13:58:06.790Z,101675.00
2023-04-05T14:01:09.883Z,101669.72
2023-04-05T14:04:13.135Z,101672.81
2023-04-05T14:07:16.117Z,101670.63
2023-04-05T14:10:21.804Z,101660.88
2023-04-05T14:13:41.341Z,101660.88
2023-04-05T14:16:47.059Z,101650.59
2023-04-05T14:19:52.762Z,101636.75
2023-04-05T14:22:59.765Z,101637.44
2023-04-05T14:26:07.768Z,101633.69
2023-04-05T14:29:13.615Z,101633.91
2023-04-05T14:32:16.946Z,101630.47
2023-04-05T14:35:20.042Z,101621.66
2023-04-05T14:38:23.010Z,101625.50
2023-04-05T14:41:28.041Z,101617.63
2023-04-05T14:44:31.577Z,101619.09
2023-04-05T14:47:34.546Z,101614.78
2023-04-05T14:50:37.678Z,101613.72
2023-04-05T14:53:41.862Z,101615.75
2023-04-05T14:56:46.247Z,101613.66
2023-04-05T14:59:49.267Z,101618.00
2023-04-05T15:02:52.428Z,101616.38
2023-04-05T15:05:55.641Z,101624.25
2023-04-05T15:08:59.507Z,101612.91
2023-04-05T15:12:04.041Z,101621.16
2023-04-05T15:15:08.737Z,101624.25
2023-04-05T15:18:11.836Z,101618.97
2023-04-05T15:21:14.952Z,101610.78
2023-04-05T15:24:17.948Z,101615.91
2023-04-05T15:27:22.259Z,101624.00
2023-04-05T15:30:26.317Z,101625.34
2023-04-05T15:33:29.285Z,101621.28
2023-04-05T15:36:32.283Z,101613.56
2023-04-05T15:39:35.287Z,101612.38
2023-04-05T15:42:39.772Z,101616.22
2023-04-05T15:45:42.911Z,101625.28
2023-04-05T15:48:46.011Z,101615.31
2023-04-05T15:51:49.019Z,101612.63
2023-04-05T15:54:52.317Z,101610.88
2023-04-05T15:57:56.592Z,101615.25
2023-04-05T16:00:59.572Z,101612.34
2023-04-05T16:04:03.057Z,101614.41
2023-04-05T16:07:07.624Z,101605.69
2023-04-05T16:10:11.880Z,101607.50
2023-04-05T16:13:16.407Z,101611.16
2023-04-05T16:16:30.018Z,101615.47
2023-04-05T16:19:38.088Z,101608.94
2023-04-05T16:22:41.466Z,101604.53
2023-04-05T16:25:44.458Z,101601.53
2023-04-05T16:28:49.281Z,101597.25
2023-04-05T16:31:52.561Z,101593.84
2023-04-05T16:34:56.294Z,101601.13
2023-04-05T16:38:00.275Z,101600.00
2023-04-05T16:41:03.558Z,101597.56
2023-04-05T16:44:07.986Z,101597.09
2023-04-05T16:47:10.961Z,101596.94
2023-04-05T16:50:14.209Z,101599.84
2023-04-05T16:53:17.221Z,101591.50
2023-04-05T16:56:20.581Z,101592.69
2023-04-05T16:59:25.563Z,101598.97
2023-04-05T17:02:29.192Z,101599.63
2023-04-05T17:05:32.900Z,101598.94
2023-04-05T17:08:36.411Z,101595.59
2023-04-05T17:11:40.172Z,101598.25
2023-04-05T17:20:11.805Z,101601.88
2023-04-05T17:23:14.901Z,101603.97
2023-04-05T17:26:17.941Z,101609.69
2023-04-05T17:29:20.924Z,101608.66
2023-04-05T17:32:23.933Z,101612.91
2023-04-05T17:35:31.142Z,101615.09
2023-04-05T17:38:35.094Z,101609.66
2023-04-05T17:41:38.118Z,101607.44
2023-04-05T17:44:41.349Z,101610.09
2023-04-05T17:47:44.524Z,101614.91
2023-04-05T17:50:48.927Z,101619.47
2023-04-05T17:53:51.989Z,101618.78
2023-04-05T17:56:55.024Z,101615.47
2023-04-05T17:59:59.209Z,101619.72
2023-04-05T18:03:07.550Z,101622.72
2023-04-05T18:06:12.752Z,101627.09
2023-04-05T18:09:15.859Z,101632.41
2023-04-05T18:12:19.054Z,101625.66
2023-04-05T18:15:21.999Z,101626.50
2023-04-05T18:18:26.211Z,101633.03
2023-04-05T18:21:30.941Z,101631.22
2023-04-05T18:24:33.933Z,101629.16
2023-04-05T18:27:36.975Z,101638.03
2023-04-05T18:30:40.279Z,101641.47
2023-04-05T18:33:43.268Z,101638.56
2023-04-05T18:36:47.786Z,101633.75
2023-04-05T18:39:50.935Z,101649.41
2023-04-05T18:42:54.181Z,101648.56
2023-04-05T18:45:57.272Z,101650.06
2023-04-05T18:49:00.351Z,101655.06
2023-04-05T18:52:04.896Z,101654.69
2023-04-05T18:55:10.145Z,101659.91
2023-04-05T18:58:13.131Z,101659.06
2023-04-05T19:01:18.020Z,101653.72
2023-04-05T19:04:21.090Z,101664.09
2023-04-05T19:07:25.627Z,101661.56
2023-04-05T19:10:28.643Z,101657.50
2023-04-05T19:13:32.805Z,101665.25
2023-04-05T19:16:35.836Z,101659.78
2023-04-05T19:19:38.892Z,101664.97
2023-04-05T19:22:43.230Z,101665.97
2023-04-05T19:25:46.372Z,101666.97
2023-04-05T19:28:49.681Z,101669.56
2023-04-05T19:31:52.683Z,101671.25
2023-04-05T19:34:55.731Z,101672.16
2023-04-05T19:38:00.945Z,101668.66
2023-04-05T19:41:03.949Z,101669.69
2023-04-05T19:44:11.700Z,101662.31
2023-04-05T19:47:15.142Z,101668.41
2023-04-05T19:50:48.241Z,101667.56
2023-04-05T19:53:53.907Z,101664.31
2023-04-05T19:56:57.379Z,101666.22
2023-04-05T20:00:00.582Z,101669.94
2023-04-05T20:03:09.688Z,101664.16
2023-04-05T20:06:14.897Z,101671.22
2023-04-05T20:09:20.616Z,101662.06
2023-04-05T20:12:23.958Z,101660.97
2023-04-05T20:15:38.592Z,101666.16
2023-04-05T20:18:45.422Z,101665.50
2023-04-05T20:21:48.503Z,101666.16
2023-04-05T20:24:53.122Z,101661.28
2023-04-05T20:27:56.893Z,101660.47
2023-04-05T20:30:59.984Z,101660.59
2023-04-05T20:34:11.271Z,101657.47
2023-04-05T20:37:14.336Z,101653.94
2023-04-05T20:40:18.800Z,101655.59
2023-04-05T20:43:21.840Z,101653.78
2023-04-05T20:46:26.150Z,101653.94
2023-04-05T20:49:30.866Z,101650.63
2023-04-05T20:52:33.995Z,101647.34
2023-04-05T20:55:38.659Z,101638.06
2023-04-05T20:58:42.571Z,101640.50
2023-04-05T21:01:47.262Z,101639.53
2023-04-05T21:04:51.073Z,101643.09
2023-04-05T21:07:54.164Z,101646.81
2023-04-05T21:10:59.909Z,101650.59
2023-04-05T21:14:03.043Z,101643.47
2023-04-05T21:17:06.133Z,101637.31
2023-04-05T21:20:10.923Z,101633.91
2023-04-05T21:23:14.077Z,101634.81
2023-04-05T21:26:18.440Z,101638.16
2023-04-05T21:29:21.753Z,101643.53
2023-04-05T21:32:25.030Z,101638.59
2023-04-05T21:35:28.364Z,101635.31
2023-04-05T21:38:31.488Z,101641.22
2023-04-05T21:41:35.985Z,101637.88
2023-04-05T21:44:38.970Z,101641.53
2023-04-05T21:47:42.496Z,101642.47
2023-04-05T21:50:45.710Z,101635.72
2023-04-05T21:53:48.728Z,101640.97
2023-04-05T21:56:53.085Z,101636.72
2023-04-05T21:59:56.094Z,101636.13
2023-04-05T22:02:59.182Z,101639.69
2023-04-05T22:06:02.901Z,101636.22
2023-04-05T22:09:06.213Z,101633.78
2023-04-05T22:12:11.333Z,101632.94
2023-04-05T22:15:14.557Z,101633.63
2023-04-05T22:18:17.939Z,101627.56
2023-04-05T22:21:21.190Z,101629.56
2023-04-05T22:24:25.764Z,101631.16
2023-04-05T22:27:30.393Z,101633.31
2023-04-05T22:30:43.833Z,101638.47
2023-04-05T22:33:47.603Z,101636.81
2023-04-05T22:36:53.599Z,101639.44
2023-04-05T22:39:59.404Z,101641.31
2023-04-05T22:43:04.368Z,101643.91
2023-04-05T22:46:08.165Z,101644.88
2023-04-05T22:49:11.330Z,101645.78
2023-04-05T22:52:14.326Z,101650.09
2023-04-05T22:55:17.874Z,101644.22
2023-04-05T22:58:22.507Z,101640.03
2023-04-05T23:01:26.580Z,101639.47
2023-04-05T23:04:29.742Z,101651.47
2023-04-05T23:07:32.918Z,101644.50
2023-04-05T23:10:36.004Z,101638.69
2023-04-05T23:13:40.837Z,101640.44
2023-04-05T23:16:44.097Z,101638.81
2023-04-05T23:19:47.116Z,101642.50
2023-04-05T23:22:50.187Z,101637.56
2023-04-05T23:25:53.259Z,101652.25
2023-04-05T23:28:57.696Z,101640.19
2023-04-05T23:32:00.793Z,101643.69
2023-04-05T23:35:03.846Z,101638.50
2023-04-05T23:38:07.296Z,101643.78
2023-04-05T23:41:11.146Z,101637.09
2023-04-05T23:44:15.951Z,101638.91
2023-04-05T23:47:19.252Z,101639.13
2023-04-05T23:50:22.500Z,101633.91
2023-04-05T23:53:25.854Z,101640.03
2023-04-05T23:56:28.904Z,101636.63
2023-04-05T23:59:33.375Z,101633.97
